N255GA CYLW-CYUL
Flight info
| Callsign | N255GA |
|---|---|
| Flight time | N/A |
| Altitude | 39000 |
| Route | ENDBY3 ENDBY DCT 51N115W 5030N11000W 4930N10000W DCT AGLIN DCT BUDAG DCT BEMOG LFLER7 |
| Aircraft | B738/M-SDE2E3FGHIRWXY/LB1 |
Departure
| Time | 2026-05-06 21:02 |
|---|---|
| Airport | Kelowna International Airport (CYLW) |
Arrival
| Time | N/A |
|---|---|
| Airport | Montreal / Pierre Elliott Trudeau International Airport (CYUL) |
| Time | Latitude | Longitude | Altitude | Speed | Heading |
|---|---|---|---|---|---|
| 2026-05-06 20:35 | 49.96714 | -119.38128 | 1432 ft | 0 kts | 92° |
| 2026-05-06 20:58 | 49.96714 | -119.38126 | 1432 ft | 1 kts | 98° |
| 2026-05-06 20:58 | 49.96713 | -119.38124 | 1432 ft | 0 kts | 103° |
| 2026-05-06 20:58 | 49.96712 | -119.38120 | 1432 ft | 3 kts | 108° |
| 2026-05-06 20:59 | 49.96648 | -119.38073 | 1430 ft | 14 kts | 169° |
| 2026-05-06 20:59 | 49.96611 | -119.37966 | 1428 ft | 18 kts | 82° |
| 2026-05-06 20:59 | 49.96705 | -119.37928 | 1430 ft | 19 kts | 349° |
| 2026-05-06 20:59 | 49.96857 | -119.37961 | 1435 ft | 23 kts | 340° |
| 2026-05-06 21:00 | 49.96921 | -119.37939 | 1438 ft | 5 kts | 77° |
| 2026-05-06 21:00 | 49.96895 | -119.37906 | 1436 ft | 7 kts | 171° |
| 2026-05-06 21:00 | 49.96829 | -119.37943 | 1433 ft | 14 kts | 192° |
| 2026-05-06 21:00 | 49.96765 | -119.37941 | 1431 ft | 0 kts | 175° |
| 2026-05-06 21:01 | 49.96763 | -119.37940 | 1431 ft | 1 kts | 175° |
| 2026-05-06 21:01 | 49.96761 | -119.37940 | 1431 ft | 3 kts | 175° |
| 2026-05-06 21:01 | 49.96512 | -119.37905 | 1424 ft | 80 kts | 174° |
| 2026-05-06 21:02 | 49.95664 | -119.37785 | 1411 ft | 162 kts | 174° |
| 2026-05-06 21:02 | 49.94428 | -119.37643 | 2034 ft | 187 kts | 179° |
| 2026-05-06 21:02 | 49.93091 | -119.37452 | 2952 ft | 201 kts | 175° |
| 2026-05-06 21:02 | 49.91661 | -119.37245 | 3799 ft | 218 kts | 181° |
| 2026-05-06 21:03 | 49.90095 | -119.37076 | 4340 ft | 235 kts | 182° |
| 2026-05-06 21:03 | 49.88448 | -119.37564 | 4679 ft | 253 kts | 212° |
| 2026-05-06 21:03 | 49.87223 | -119.39506 | 5397 ft | 257 kts | 246° |
| 2026-05-06 21:03 | 49.86879 | -119.42156 | 6502 ft | 253 kts | 271° |
| 2026-05-06 21:04 | 49.86800 | -119.44895 | 7423 ft | 258 kts | 251° |
| 2026-05-06 21:04 | 49.85861 | -119.47285 | 8290 ft | 266 kts | 233° |
| 2026-05-06 21:04 | 49.84685 | -119.49566 | 9178 ft | 272 kts | 234° |
| 2026-05-06 21:04 | 49.83545 | -119.51908 | 10083 ft | 275 kts | 236° |
| 2026-05-06 21:05 | 49.82397 | -119.54368 | 10585 ft | 293 kts | 237° |
| 2026-05-06 21:05 | 49.81186 | -119.57020 | 10793 ft | 318 kts | 237° |
| 2026-05-06 21:05 | 49.79861 | -119.59937 | 10955 ft | 343 kts | 237° |
| 2026-05-06 21:05 | 49.78703 | -119.63204 | 11482 ft | 350 kts | 253° |
| 2026-05-06 21:06 | 49.78384 | -119.66926 | 12239 ft | 349 kts | 274° |
| 2026-05-06 21:06 | 49.78879 | -119.70570 | 13167 ft | 349 kts | 292° |
| 2026-05-06 21:06 | 49.79971 | -119.73946 | 13978 ft | 352 kts | 297° |
| 2026-05-06 21:06 | 49.81159 | -119.77271 | 14738 ft | 353 kts | 298° |
| 2026-05-06 21:07 | 49.82363 | -119.80606 | 15451 ft | 357 kts | 297° |
| 2026-05-06 21:07 | 49.83574 | -119.83995 | 16051 ft | 363 kts | 298° |
| 2026-05-06 21:07 | 49.85203 | -119.86959 | 16687 ft | 373 kts | 319° |
| 2026-05-06 21:07 | 49.87509 | -119.88914 | 17289 ft | 386 kts | 337° |
| 2026-05-06 21:08 | 49.90177 | -119.89730 | 17895 ft | 399 kts | 353° |
| 2026-05-06 21:08 | 49.92978 | -119.89278 | 18432 ft | 413 kts | 10° |
| 2026-05-06 21:08 | 49.95681 | -119.87608 | 18987 ft | 425 kts | 26° |
| 2026-05-06 21:08 | 49.98128 | -119.84994 | 19597 ft | 430 kts | 33° |
| 2026-05-06 21:09 | 50.00475 | -119.82060 | 20117 ft | 436 kts | 36° |
| 2026-05-06 21:09 | 50.02801 | -119.78992 | 20623 ft | 441 kts | 36° |
| 2026-05-06 21:09 | 50.05139 | -119.75889 | 21190 ft | 443 kts | 36° |
| 2026-05-06 21:09 | 50.07472 | -119.72827 | 21716 ft | 446 kts | 35° |
| 2026-05-06 21:10 | 50.09866 | -119.69733 | 22239 ft | 448 kts | 35° |
| 2026-05-06 21:10 | 50.12285 | -119.66644 | 22718 ft | 452 kts | 34° |
| 2026-05-06 21:10 | 50.14730 | -119.63542 | 23177 ft | 455 kts | 34° |
| 2026-05-06 21:10 | 50.17202 | -119.60412 | 23591 ft | 459 kts | 34° |
| 2026-05-06 21:11 | 50.19685 | -119.57265 | 24046 ft | 459 kts | 34° |
| 2026-05-06 21:11 | 50.22161 | -119.54120 | 24520 ft | 460 kts | 34° |
| 2026-05-06 21:11 | 50.24654 | -119.50953 | 24798 ft | 465 kts | 34° |
| 2026-05-06 21:11 | 50.27135 | -119.47794 | 25155 ft | 467 kts | 34° |
| 2026-05-06 21:12 | 50.29656 | -119.44574 | 25557 ft | 469 kts | 33° |
| 2026-05-06 21:12 | 50.32188 | -119.41335 | 25936 ft | 471 kts | 33° |
| 2026-05-06 21:12 | 50.34733 | -119.38077 | 26278 ft | 473 kts | 33° |
| 2026-05-06 21:12 | 50.37275 | -119.34817 | 26617 ft | 474 kts | 33° |
| 2026-05-06 21:13 | 50.39838 | -119.31527 | 26924 ft | 478 kts | 33° |
| 2026-05-06 21:13 | 50.42418 | -119.28211 | 27244 ft | 481 kts | 33° |
| 2026-05-06 21:13 | 50.44950 | -119.24877 | 27586 ft | 482 kts | 34° |
| 2026-05-06 21:13 | 50.47502 | -119.21442 | 27889 ft | 485 kts | 34° |
| 2026-05-06 21:14 | 50.50063 | -119.17966 | 28179 ft | 488 kts | 34° |
| 2026-05-06 21:14 | 50.52634 | -119.14473 | 28511 ft | 489 kts | 34° |
| 2026-05-06 21:14 | 50.55209 | -119.10981 | 28981 ft | 488 kts | 34° |
| 2026-05-06 21:14 | 50.57770 | -119.07509 | 29499 ft | 486 kts | 34° |
| 2026-05-06 21:15 | 50.60334 | -119.04037 | 29979 ft | 484 kts | 34° |
| 2026-05-06 21:15 | 50.62883 | -119.00585 | 30369 ft | 483 kts | 34° |
| 2026-05-06 21:15 | 50.65320 | -118.96909 | 30711 ft | 491 kts | 44° |
| 2026-05-06 21:15 | 50.67250 | -118.92416 | 31057 ft | 501 kts | 57° |
| 2026-05-06 21:16 | 50.68561 | -118.87287 | 31407 ft | 509 kts | 71° |
| 2026-05-06 21:16 | 50.69223 | -118.81851 | 31713 ft | 512 kts | 78° |
| 2026-05-06 21:16 | 50.69732 | -118.76288 | 31991 ft | 514 kts | 79° |
| 2026-05-06 21:16 | 50.70209 | -118.70695 | 32288 ft | 515 kts | 79° |
| 2026-05-06 21:17 | 50.70684 | -118.65111 | 32723 ft | 511 kts | 79° |
| 2026-05-06 21:17 | 50.71171 | -118.59574 | 33091 ft | 511 kts | 78° |
| 2026-05-06 21:17 | 50.71678 | -118.54008 | 33345 ft | 513 kts | 78° |
| 2026-05-06 21:17 | 50.72200 | -118.48435 | 33624 ft | 513 kts | 78° |
| 2026-05-06 21:18 | 50.72729 | -118.42864 | 33988 ft | 512 kts | 78° |
| 2026-05-06 21:18 | 50.73249 | -118.37383 | 34303 ft | 510 kts | 78° |
| 2026-05-06 21:18 | 50.73771 | -118.31863 | 34622 ft | 509 kts | 78° |
| 2026-05-06 21:18 | 50.74290 | -118.26338 | 34925 ft | 508 kts | 78° |
| 2026-05-06 21:19 | 50.74803 | -118.20833 | 35171 ft | 507 kts | 78° |
| 2026-05-06 21:19 | 50.75314 | -118.15325 | 35420 ft | 507 kts | 78° |
| 2026-05-06 21:19 | 50.75821 | -118.09806 | 35692 ft | 506 kts | 79° |
| 2026-05-06 21:19 | 50.76323 | -118.04315 | 35943 ft | 505 kts | 79° |
| 2026-05-06 21:20 | 50.76822 | -117.98834 | 36203 ft | 504 kts | 79° |
| 2026-05-06 21:20 | 50.77317 | -117.93362 | 36466 ft | 503 kts | 79° |
| 2026-05-06 21:20 | 50.77810 | -117.87892 | 36792 ft | 502 kts | 79° |
| 2026-05-06 21:20 | 50.78291 | -117.82517 | 37036 ft | 501 kts | 79° |
| 2026-05-06 21:21 | 50.78777 | -117.77063 | 37285 ft | 501 kts | 79° |
| 2026-05-06 21:21 | 50.79260 | -117.71621 | 37483 ft | 501 kts | 79° |
| 2026-05-06 21:21 | 50.79739 | -117.66173 | 37675 ft | 501 kts | 79° |
| 2026-05-06 21:21 | 50.80218 | -117.60708 | 37963 ft | 501 kts | 79° |
| 2026-05-06 21:22 | 50.80694 | -117.55257 | 38283 ft | 499 kts | 80° |
| 2026-05-06 21:22 | 50.81166 | -117.49836 | 38597 ft | 497 kts | 79° |
| 2026-05-06 21:22 | 50.81633 | -117.44409 | 38740 ft | 498 kts | 79° |
| 2026-05-06 21:22 | 50.82096 | -117.38990 | 38944 ft | 497 kts | 79° |
| 2026-05-06 21:23 | 50.82548 | -117.33661 | 38965 ft | 493 kts | 79° |
| 2026-05-06 21:23 | 50.83447 | -117.22921 | 38988 ft | 494 kts | 82° |
| 2026-05-06 21:24 | 50.83581 | -117.11960 | 38976 ft | 503 kts | 90° |
| 2026-05-06 21:24 | 50.83274 | -117.00863 | 38982 ft | 507 kts | 91° |
| 2026-05-06 21:25 | 50.82966 | -116.89682 | 38981 ft | 508 kts | 90° |
| 2026-05-06 21:25 | 50.82727 | -116.78602 | 38979 ft | 509 kts | 90° |
| 2026-05-06 21:26 | 50.82512 | -116.67389 | 38973 ft | 510 kts | 89° |
| 2026-05-06 21:26 | 50.82291 | -116.56208 | 38960 ft | 507 kts | 90° |
| 2026-05-06 21:27 | 50.82053 | -116.45122 | 38939 ft | 500 kts | 90° |
| 2026-05-06 21:27 | 50.81810 | -116.34151 | 38945 ft | 499 kts | 90° |
| 2026-05-06 21:28 | 50.81559 | -116.23307 | 38948 ft | 499 kts | 90° |
| 2026-05-06 21:28 | 50.81295 | -116.12346 | 38950 ft | 499 kts | 90° |
| 2026-05-06 21:29 | 50.81020 | -116.01380 | 38902 ft | 499 kts | 90° |
| 2026-05-06 21:29 | 50.80734 | -115.90430 | 38938 ft | 499 kts | 90° |
| 2026-05-06 21:30 | 50.80441 | -115.79497 | 38952 ft | 497 kts | 90° |
| 2026-05-06 21:30 | 50.80136 | -115.68630 | 38942 ft | 498 kts | 91° |
| 2026-05-06 21:31 | 50.79819 | -115.57712 | 38948 ft | 498 kts | 90° |
| 2026-05-06 21:31 | 50.79491 | -115.46750 | 38960 ft | 500 kts | 91° |
| 2026-05-06 21:32 | 50.79153 | -115.35758 | 38943 ft | 500 kts | 91° |
| 2026-05-06 21:32 | 50.78634 | -115.19398 | 38900 ft | 498 kts | 91° |
| 2026-05-06 21:33 | 50.78271 | -115.08515 | 38923 ft | 496 kts | 91° |
| 2026-05-06 21:33 | 50.77901 | -114.97646 | 38917 ft | 496 kts | 91° |
| 2026-05-06 21:34 | 50.77522 | -114.86852 | 38913 ft | 495 kts | 91° |
| 2026-05-06 21:34 | 50.77132 | -114.75998 | 38894 ft | 495 kts | 91° |
| 2026-05-06 21:35 | 50.76732 | -114.65169 | 38894 ft | 494 kts | 91° |
| 2026-05-06 21:35 | 50.76323 | -114.54323 | 38889 ft | 493 kts | 91° |
| 2026-05-06 21:36 | 50.75905 | -114.43521 | 38885 ft | 493 kts | 91° |
| 2026-05-06 21:36 | 50.75479 | -114.32776 | 38873 ft | 493 kts | 91° |
| 2026-05-06 21:37 | 50.75041 | -114.21971 | 38877 ft | 493 kts | 91° |
| 2026-05-06 21:37 | 50.74593 | -114.11186 | 38873 ft | 492 kts | 92° |
| 2026-05-06 21:38 | 50.74135 | -114.00405 | 38877 ft | 492 kts | 92° |
| 2026-05-06 21:38 | 50.73668 | -113.89613 | 38864 ft | 493 kts | 92° |
| 2026-05-06 21:39 | 50.73190 | -113.78822 | 38870 ft | 492 kts | 92° |
| 2026-05-06 21:39 | 50.72706 | -113.68119 | 38870 ft | 492 kts | 92° |
| 2026-05-06 21:40 | 50.72208 | -113.57347 | 38870 ft | 492 kts | 92° |
| 2026-05-06 21:40 | 50.71701 | -113.46577 | 38862 ft | 492 kts | 92° |
| 2026-05-06 21:41 | 50.71188 | -113.35897 | 38864 ft | 491 kts | 92° |
| 2026-05-06 21:41 | 50.70662 | -113.25151 | 38870 ft | 491 kts | 92° |
| 2026-05-06 21:42 | 50.70127 | -113.14404 | 38865 ft | 491 kts | 92° |
| 2026-05-06 21:42 | 50.69581 | -113.03658 | 38866 ft | 491 kts | 92° |
| 2026-05-06 21:43 | 50.69025 | -112.92921 | 38860 ft | 491 kts | 92° |
| 2026-05-06 21:43 | 50.68464 | -112.82254 | 38864 ft | 491 kts | 92° |
| 2026-05-06 21:44 | 50.67889 | -112.71523 | 38866 ft | 491 kts | 92° |
| 2026-05-06 21:44 | 50.67303 | -112.60787 | 38865 ft | 491 kts | 92° |
| 2026-05-06 21:45 | 50.66709 | -112.50063 | 38874 ft | 491 kts | 92° |
| 2026-05-06 21:45 | 50.66108 | -112.39403 | 38871 ft | 491 kts | 92° |
| 2026-05-06 21:46 | 50.65493 | -112.28675 | 38882 ft | 491 kts | 92° |
| 2026-05-06 21:46 | 50.64869 | -112.17965 | 38883 ft | 492 kts | 91° |
| 2026-05-06 21:47 | 50.64234 | -112.07229 | 38894 ft | 492 kts | 91° |
| 2026-05-06 21:47 | 50.63594 | -111.96585 | 38888 ft | 492 kts | 91° |
| 2026-05-06 21:48 | 50.62939 | -111.85861 | 38893 ft | 492 kts | 91° |
| 2026-05-06 21:48 | 50.62275 | -111.75138 | 38914 ft | 492 kts | 91° |
| 2026-05-06 21:49 | 50.61600 | -111.64400 | 38913 ft | 493 kts | 91° |
| 2026-05-06 21:49 | 50.60913 | -111.53650 | 38905 ft | 494 kts | 91° |
| 2026-05-06 21:50 | 50.60222 | -111.42981 | 38914 ft | 494 kts | 91° |
| 2026-05-06 21:50 | 50.59515 | -111.32231 | 38914 ft | 494 kts | 91° |
| 2026-05-06 21:51 | 50.58799 | -111.21486 | 38924 ft | 494 kts | 91° |
| 2026-05-06 21:51 | 50.58074 | -111.10749 | 38928 ft | 494 kts | 91° |
| 2026-05-06 21:52 | 50.57338 | -111.00017 | 38935 ft | 493 kts | 91° |
| 2026-05-06 21:52 | 50.56598 | -110.89372 | 38935 ft | 493 kts | 91° |
| 2026-05-06 21:53 | 50.55843 | -110.78640 | 38938 ft | 493 kts | 91° |
| 2026-05-06 21:53 | 50.55078 | -110.67926 | 38941 ft | 493 kts | 91° |
| 2026-05-06 21:54 | 50.54310 | -110.57296 | 38946 ft | 493 kts | 91° |
| 2026-05-06 21:54 | 50.53527 | -110.46605 | 38952 ft | 492 kts | 91° |
| 2026-05-06 21:55 | 50.52734 | -110.35907 | 38956 ft | 492 kts | 91° |
| 2026-05-06 21:55 | 50.51932 | -110.25225 | 38956 ft | 492 kts | 91° |
| 2026-05-06 21:56 | 50.51120 | -110.14547 | 38961 ft | 492 kts | 91° |
| 2026-05-06 21:56 | 50.50306 | -110.03944 | 38958 ft | 492 kts | 91° |
| 2026-05-06 21:57 | 50.49542 | -109.93285 | 38962 ft | 490 kts | 89° |
| 2026-05-06 21:57 | 50.48956 | -109.82627 | 38971 ft | 489 kts | 88° |
| 2026-05-06 21:58 | 50.48388 | -109.71986 | 38970 ft | 489 kts | 89° |
| 2026-05-06 21:58 | 50.47787 | -109.61355 | 38971 ft | 489 kts | 89° |
| 2026-05-06 21:59 | 50.47163 | -109.50793 | 38972 ft | 489 kts | 89° |
| 2026-05-06 21:59 | 50.46521 | -109.40163 | 38979 ft | 489 kts | 89° |
| 2026-05-06 22:00 | 50.45870 | -109.29536 | 38978 ft | 489 kts | 89° |
| 2026-05-06 22:00 | 50.45210 | -109.18913 | 38985 ft | 489 kts | 89° |
| 2026-05-06 22:01 | 50.44544 | -109.08357 | 38984 ft | 489 kts | 89° |
| 2026-05-06 22:01 | 50.43866 | -108.97737 | 38985 ft | 490 kts | 89° |
| 2026-05-06 22:02 | 50.43176 | -108.87109 | 39002 ft | 490 kts | 89° |
| 2026-05-06 22:02 | 50.42476 | -108.76473 | 38993 ft | 490 kts | 89° |
| 2026-05-06 22:03 | 50.41771 | -108.65916 | 39001 ft | 490 kts | 89° |
| 2026-05-06 22:03 | 50.41053 | -108.55302 | 39001 ft | 490 kts | 89° |
| 2026-05-06 22:04 | 50.40325 | -108.44689 | 39005 ft | 489 kts | 89° |
| 2026-05-06 22:04 | 50.39587 | -108.34083 | 39002 ft | 489 kts | 89° |
| 2026-05-06 22:05 | 50.38847 | -108.23579 | 39009 ft | 488 kts | 89° |
| 2026-05-06 22:05 | 50.38093 | -108.13019 | 39005 ft | 488 kts | 89° |
| 2026-05-06 22:06 | 50.37331 | -108.02471 | 39010 ft | 487 kts | 89° |
| 2026-05-06 22:06 | 50.36559 | -107.91929 | 39011 ft | 487 kts | 90° |
| 2026-05-06 22:07 | 50.35783 | -107.81464 | 39021 ft | 487 kts | 90° |
| 2026-05-06 22:07 | 50.34993 | -107.70944 | 39021 ft | 486 kts | 90° |
| 2026-05-06 22:08 | 50.34195 | -107.60438 | 39033 ft | 486 kts | 90° |
| 2026-05-06 22:08 | 50.33386 | -107.49930 | 39020 ft | 486 kts | 90° |
| 2026-05-06 22:09 | 50.32567 | -107.39413 | 39027 ft | 486 kts | 90° |
| 2026-05-06 22:09 | 50.31747 | -107.29001 | 39028 ft | 486 kts | 91° |
| 2026-05-06 22:10 | 50.30911 | -107.18514 | 39032 ft | 486 kts | 91° |
| 2026-05-06 22:10 | 50.30066 | -107.08039 | 39033 ft | 485 kts | 91° |
| 2026-05-06 22:11 | 50.29212 | -106.97562 | 39035 ft | 485 kts | 91° |
| 2026-05-06 22:11 | 50.28349 | -106.87098 | 39032 ft | 485 kts | 91° |
| 2026-05-06 22:12 | 50.27484 | -106.76727 | 39036 ft | 485 kts | 91° |
| 2026-05-06 22:12 | 50.26603 | -106.66285 | 39037 ft | 484 kts | 91° |
| 2026-05-06 22:13 | 50.25713 | -106.55847 | 39040 ft | 484 kts | 92° |
| 2026-05-06 22:13 | 50.24815 | -106.45427 | 39030 ft | 484 kts | 92° |
| 2026-05-06 22:14 | 50.23912 | -106.35070 | 39046 ft | 484 kts | 92° |
| 2026-05-06 22:14 | 50.22996 | -106.24658 | 39044 ft | 484 kts | 92° |
| 2026-05-06 22:15 | 50.22068 | -106.14227 | 39047 ft | 485 kts | 92° |
| 2026-05-06 22:15 | 50.21130 | -106.03790 | 39044 ft | 485 kts | 92° |
| 2026-05-06 22:16 | 50.20188 | -105.93427 | 39031 ft | 486 kts | 92° |
| 2026-05-06 22:16 | 50.19231 | -105.82994 | 39017 ft | 486 kts | 92° |
| 2026-05-06 22:17 | 50.18263 | -105.72550 | 39013 ft | 486 kts | 92° |
| 2026-05-06 22:17 | 50.17285 | -105.62106 | 39006 ft | 487 kts | 93° |
| 2026-05-06 22:18 | 50.16303 | -105.51722 | 39013 ft | 487 kts | 93° |
| 2026-05-06 22:18 | 50.15305 | -105.41270 | 39015 ft | 487 kts | 93° |
| 2026-05-06 22:19 | 50.14299 | -105.30834 | 39034 ft | 487 kts | 93° |
| 2026-05-06 22:19 | 50.13281 | -105.20388 | 39045 ft | 487 kts | 93° |
| 2026-05-06 22:20 | 50.12255 | -105.09951 | 39064 ft | 487 kts | 93° |
| 2026-05-06 22:20 | 50.11228 | -104.99600 | 39056 ft | 487 kts | 94° |
| 2026-05-06 22:21 | 50.10184 | -104.89180 | 39055 ft | 487 kts | 94° |
| 2026-05-06 22:21 | 50.09131 | -104.78765 | 39051 ft | 486 kts | 94° |
| 2026-05-06 22:22 | 50.08070 | -104.68371 | 39055 ft | 486 kts | 94° |
| 2026-05-06 22:22 | 50.06999 | -104.57975 | 39053 ft | 486 kts | 94° |
| 2026-05-06 22:23 | 50.05929 | -104.47680 | 39054 ft | 486 kts | 94° |
| 2026-05-06 22:23 | 50.04842 | -104.37313 | 39045 ft | 485 kts | 94° |
| 2026-05-06 22:24 | 50.03746 | -104.26951 | 39048 ft | 485 kts | 94° |
| 2026-05-06 22:24 | 50.02641 | -104.16598 | 39049 ft | 485 kts | 95° |
| 2026-05-06 22:25 | 50.01536 | -104.06333 | 39046 ft | 485 kts | 95° |
| 2026-05-06 22:25 | 50.00413 | -103.95997 | 39042 ft | 485 kts | 95° |
| 2026-05-06 22:26 | 49.99283 | -103.85675 | 39044 ft | 485 kts | 95° |
| 2026-05-06 22:26 | 49.98142 | -103.75355 | 39048 ft | 485 kts | 95° |
| 2026-05-06 22:27 | 49.97001 | -103.65109 | 39040 ft | 485 kts | 95° |
| 2026-05-06 22:27 | 49.95843 | -103.54803 | 39041 ft | 484 kts | 96° |
| 2026-05-06 22:28 | 49.94676 | -103.44503 | 39042 ft | 484 kts | 96° |
| 2026-05-06 22:28 | 49.93700 | -103.35957 | 39041 ft | 484 kts | 96° |
| 2026-05-06 22:29 | 49.92518 | -103.25679 | 39039 ft | 483 kts | 96° |
| 2026-05-06 22:29 | 49.91134 | -103.13753 | 39043 ft | 483 kts | 96° |
| 2026-05-06 22:30 | 49.89934 | -103.03502 | 39044 ft | 483 kts | 96° |
| 2026-05-06 22:30 | 49.88929 | -102.94982 | 39041 ft | 483 kts | 96° |
| 2026-05-06 22:31 | 49.87713 | -102.84742 | 39039 ft | 483 kts | 97° |
| 2026-05-06 22:31 | 49.86490 | -102.74520 | 39038 ft | 483 kts | 97° |
| 2026-05-06 22:32 | 49.85257 | -102.64300 | 39036 ft | 483 kts | 97° |
| 2026-05-06 22:32 | 49.84023 | -102.54153 | 39034 ft | 482 kts | 97° |
| 2026-05-06 22:33 | 49.82771 | -102.43941 | 39033 ft | 482 kts | 97° |
| 2026-05-06 22:33 | 49.81512 | -102.33745 | 39035 ft | 482 kts | 97° |
| 2026-05-06 22:34 | 49.80243 | -102.23540 | 39031 ft | 482 kts | 97° |
| 2026-05-06 22:34 | 49.78966 | -102.13351 | 39034 ft | 482 kts | 98° |
| 2026-05-06 22:35 | 49.77689 | -102.03245 | 39029 ft | 482 kts | 98° |
| 2026-05-06 22:35 | 49.76395 | -101.93075 | 39030 ft | 482 kts | 98° |
| 2026-05-06 22:36 | 49.75092 | -101.82905 | 39027 ft | 482 kts | 98° |
| 2026-05-06 22:36 | 49.73780 | -101.72748 | 39031 ft | 482 kts | 98° |
| 2026-05-06 22:37 | 49.72469 | -101.62671 | 39035 ft | 482 kts | 98° |
| 2026-05-06 22:37 | 49.71141 | -101.52527 | 39034 ft | 482 kts | 98° |
| 2026-05-06 22:38 | 49.69804 | -101.42401 | 39038 ft | 482 kts | 99° |
| 2026-05-06 22:38 | 49.68457 | -101.32265 | 39036 ft | 482 kts | 99° |
| 2026-05-06 22:39 | 49.67101 | -101.22134 | 39033 ft | 482 kts | 99° |
| 2026-05-06 22:39 | 49.65746 | -101.12081 | 39036 ft | 482 kts | 99° |
| 2026-05-06 22:40 | 49.64372 | -101.01956 | 39037 ft | 482 kts | 99° |
| 2026-05-06 22:40 | 49.62991 | -100.91852 | 39033 ft | 482 kts | 99° |
| 2026-05-06 22:41 | 49.60910 | -100.76753 | 39033 ft | 482 kts | 99° |
| 2026-05-06 22:42 | 49.59507 | -100.66665 | 39034 ft | 482 kts | 100° |
| 2026-05-06 22:42 | 49.58093 | -100.56565 | 39034 ft | 482 kts | 100° |
| 2026-05-06 22:43 | 49.56672 | -100.46482 | 39027 ft | 482 kts | 100° |
| 2026-05-06 22:43 | 49.55241 | -100.36395 | 39032 ft | 482 kts | 100° |
| 2026-05-06 22:44 | 49.53813 | -100.26392 | 39028 ft | 482 kts | 100° |
| 2026-05-06 22:44 | 49.52365 | -100.16318 | 39029 ft | 482 kts | 101° |
| 2026-05-06 22:45 | 49.50912 | -100.06265 | 39029 ft | 482 kts | 101° |
| 2026-05-06 22:45 | 49.49638 | -99.96164 | 39027 ft | 480 kts | 95° |
| 2026-05-06 22:46 | 49.48918 | -99.86035 | 39027 ft | 479 kts | 94° |
| 2026-05-06 22:46 | 49.48244 | -99.75834 | 39029 ft | 480 kts | 94° |
| 2026-05-06 22:47 | 49.47534 | -99.65635 | 39029 ft | 480 kts | 94° |
| 2026-05-06 22:47 | 49.46790 | -99.55431 | 39030 ft | 480 kts | 95° |
| 2026-05-06 22:48 | 49.46030 | -99.45233 | 39028 ft | 480 kts | 95° |
| 2026-05-06 22:48 | 49.45265 | -99.35108 | 39031 ft | 480 kts | 95° |
| 2026-05-06 22:49 | 49.44487 | -99.24918 | 39029 ft | 480 kts | 95° |
| 2026-05-06 22:49 | 49.43700 | -99.14716 | 39034 ft | 481 kts | 95° |
| 2026-05-06 22:50 | 49.42905 | -99.04522 | 39029 ft | 481 kts | 95° |
| 2026-05-06 22:50 | 49.42106 | -98.94404 | 39034 ft | 481 kts | 95° |
| 2026-05-06 22:51 | 49.41293 | -98.84218 | 39031 ft | 481 kts | 95° |
| 2026-05-06 22:51 | 49.40470 | -98.74036 | 39034 ft | 481 kts | 95° |
| 2026-05-06 22:52 | 49.39639 | -98.63858 | 39030 ft | 481 kts | 96° |
| 2026-05-06 22:52 | 49.38799 | -98.53684 | 39029 ft | 480 kts | 96° |
| 2026-05-06 22:53 | 49.37949 | -98.43501 | 39023 ft | 481 kts | 96° |
| 2026-05-06 22:53 | 49.37097 | -98.33404 | 39023 ft | 481 kts | 96° |
| 2026-05-06 22:54 | 49.36230 | -98.23230 | 39024 ft | 481 kts | 96° |
| 2026-05-06 22:54 | 49.35354 | -98.13072 | 39016 ft | 481 kts | 96° |
| 2026-05-06 22:55 | 49.34467 | -98.02888 | 39026 ft | 481 kts | 96° |
| 2026-05-06 22:55 | 49.33578 | -97.92785 | 39024 ft | 482 kts | 96° |
| 2026-05-06 22:56 | 49.32674 | -97.82610 | 39021 ft | 482 kts | 96° |
| 2026-05-06 22:56 | 49.31759 | -97.72426 | 39021 ft | 483 kts | 96° |
| 2026-05-06 22:57 | 49.30834 | -97.62236 | 39024 ft | 483 kts | 96° |
| 2026-05-06 22:57 | 49.29907 | -97.52116 | 39027 ft | 483 kts | 96° |
| 2026-05-06 22:58 | 49.28963 | -97.41918 | 39028 ft | 484 kts | 97° |
| 2026-05-06 22:58 | 49.28009 | -97.31709 | 39029 ft | 484 kts | 97° |
| 2026-05-06 22:59 | 49.27046 | -97.21507 | 39024 ft | 484 kts | 97° |
| 2026-05-06 22:59 | 49.26081 | -97.11374 | 39028 ft | 485 kts | 97° |
| 2026-05-06 23:00 | 49.25098 | -97.01163 | 39029 ft | 485 kts | 97° |
| 2026-05-06 23:00 | 49.24106 | -96.90959 | 39035 ft | 485 kts | 97° |
| 2026-05-06 23:01 | 49.23105 | -96.80750 | 39032 ft | 485 kts | 97° |
| 2026-05-06 23:01 | 49.22102 | -96.70615 | 39031 ft | 485 kts | 97° |
| 2026-05-06 23:02 | 49.21083 | -96.60407 | 39033 ft | 485 kts | 97° |
| 2026-05-06 23:02 | 49.20055 | -96.50210 | 39035 ft | 486 kts | 98° |
| 2026-05-06 23:03 | 49.19015 | -96.39993 | 39035 ft | 488 kts | 98° |
| 2026-05-06 23:03 | 49.17967 | -96.29779 | 39035 ft | 491 kts | 98° |
| 2026-05-06 23:04 | 49.16897 | -96.19447 | 39031 ft | 493 kts | 98° |
| 2026-05-06 23:04 | 49.15813 | -96.09079 | 39022 ft | 495 kts | 98° |
| 2026-05-06 23:05 | 49.14717 | -95.98693 | 39017 ft | 495 kts | 98° |
| 2026-05-06 23:05 | 49.13611 | -95.88304 | 39015 ft | 495 kts | 98° |
| 2026-05-06 23:06 | 49.12506 | -95.78004 | 39010 ft | 495 kts | 98° |
| 2026-05-06 23:06 | 49.11381 | -95.67624 | 39006 ft | 495 kts | 98° |
| 2026-05-06 23:07 | 49.10250 | -95.57267 | 39002 ft | 495 kts | 99° |
| 2026-05-06 23:07 | 49.09117 | -95.46987 | 39001 ft | 494 kts | 99° |
| 2026-05-06 23:08 | 49.07969 | -95.36651 | 39003 ft | 494 kts | 99° |
| 2026-05-06 23:08 | 49.06812 | -95.26326 | 39001 ft | 494 kts | 99° |
| 2026-05-06 23:09 | 49.05645 | -95.16004 | 39001 ft | 494 kts | 99° |
| 2026-05-06 23:09 | 49.04479 | -95.05772 | 39000 ft | 493 kts | 99° |
| 2026-05-06 23:10 | 49.03310 | -94.95593 | 39002 ft | 493 kts | 99° |
| 2026-05-06 23:10 | 49.02117 | -94.85297 | 39008 ft | 493 kts | 99° |
| 2026-05-06 23:11 | 49.00915 | -94.75005 | 39009 ft | 494 kts | 99° |
| 2026-05-06 23:11 | 48.99712 | -94.64782 | 39019 ft | 494 kts | 99° |
| 2026-05-06 23:12 | 48.98491 | -94.54499 | 39017 ft | 494 kts | 100° |
| 2026-05-06 23:12 | 48.97281 | -94.44383 | 39021 ft | 494 kts | 100° |
| 2026-05-06 23:13 | 48.96040 | -94.34085 | 39023 ft | 494 kts | 100° |
| 2026-05-06 23:13 | 48.94798 | -94.23861 | 39018 ft | 495 kts | 100° |
| 2026-05-06 23:14 | 48.93539 | -94.13581 | 39024 ft | 495 kts | 100° |
| 2026-05-06 23:14 | 48.92317 | -94.03671 | 39019 ft | 495 kts | 100° |
| 2026-05-06 23:15 | 48.91188 | -93.93377 | 38997 ft | 495 kts | 89° |
| 2026-05-06 23:15 | 48.91689 | -93.88231 | 39027 ft | 490 kts | 69° |
| 2026-05-06 23:15 | 48.93157 | -93.83613 | 39026 ft | 484 kts | 53° |
| 2026-05-06 23:15 | 48.95289 | -93.79793 | 39030 ft | 478 kts | 39° |
| 2026-05-06 23:16 | 48.97958 | -93.76846 | 39016 ft | 472 kts | 25° |
| 2026-05-06 23:16 | 49.00983 | -93.75013 | 39019 ft | 467 kts | 11° |
| 2026-05-06 23:16 | 49.04193 | -93.74406 | 39023 ft | 462 kts | 356° |
| 2026-05-06 23:16 | 49.07356 | -93.75052 | 39019 ft | 458 kts | 341° |
| 2026-05-06 23:17 | 49.10303 | -93.76807 | 39031 ft | 455 kts | 330° |
| 2026-05-06 23:17 | 49.12928 | -93.79480 | 39014 ft | 453 kts | 317° |
| 2026-05-06 23:17 | 49.15105 | -93.82938 | 39032 ft | 452 kts | 310° |
| 2026-05-06 23:18 | 49.19144 | -93.90234 | 39018 ft | 453 kts | 309° |
| 2026-05-06 23:18 | 49.23190 | -93.97653 | 39020 ft | 454 kts | 309° |
| 2026-05-06 23:19 | 49.27274 | -94.05030 | 39022 ft | 455 kts | 309° |
| 2026-05-06 23:19 | 49.31382 | -94.12395 | 39021 ft | 455 kts | 310° |
| 2026-05-06 23:20 | 49.35493 | -94.19774 | 39027 ft | 454 kts | 310° |
| 2026-05-06 23:20 | 49.39562 | -94.27103 | 39031 ft | 454 kts | 310° |
| 2026-05-06 23:21 | 49.43653 | -94.34498 | 39028 ft | 454 kts | 310° |
| 2026-05-06 23:21 | 49.47732 | -94.41892 | 39022 ft | 454 kts | 310° |
| 2026-05-06 23:22 | 49.51808 | -94.49303 | 39017 ft | 453 kts | 310° |
| 2026-05-06 23:22 | 49.55845 | -94.56664 | 39014 ft | 453 kts | 310° |
| 2026-05-06 23:23 | 49.59908 | -94.64091 | 39008 ft | 453 kts | 310° |
| 2026-05-06 23:23 | 49.61943 | -94.67820 | 38666 ft | 459 kts | 310° |
| 2026-05-06 23:23 | 49.63996 | -94.71587 | 38102 ft | 456 kts | 310° |
| 2026-05-06 23:23 | 49.66030 | -94.75325 | 37408 ft | 455 kts | 310° |
| 2026-05-06 23:24 | 49.68063 | -94.79066 | 36765 ft | 453 kts | 310° |
| 2026-05-06 23:24 | 49.70058 | -94.82741 | 36130 ft | 452 kts | 310° |
| 2026-05-06 23:24 | 49.72077 | -94.86465 | 35446 ft | 452 kts | 309° |
| 2026-05-06 23:24 | 49.73868 | -94.90446 | 34696 ft | 453 kts | 296° |
| 2026-05-06 23:25 | 49.74939 | -94.95009 | 33950 ft | 455 kts | 282° |
| 2026-05-06 23:25 | 49.75226 | -94.99886 | 33057 ft | 457 kts | 271° |
| 2026-05-06 23:25 | 49.75218 | -95.04802 | 32198 ft | 456 kts | 270° |
| 2026-05-06 23:25 | 49.75166 | -95.09704 | 31364 ft | 456 kts | 270° |
| 2026-05-06 23:26 | 49.75106 | -95.14608 | 30503 ft | 456 kts | 270° |
| 2026-05-06 23:26 | 49.75055 | -95.19516 | 29497 ft | 456 kts | 271° |
| 2026-05-06 23:26 | 49.75016 | -95.24353 | 28468 ft | 456 kts | 271° |
| 2026-05-06 23:26 | 49.74987 | -95.29245 | 27450 ft | 454 kts | 271° |
| 2026-05-06 23:27 | 49.74962 | -95.34117 | 26426 ft | 454 kts | 271° |
| 2026-05-06 23:27 | 49.74940 | -95.38957 | 25715 ft | 447 kts | 271° |
| 2026-05-06 23:27 | 49.74917 | -95.43729 | 24953 ft | 441 kts | 271° |
| 2026-05-06 23:27 | 49.74892 | -95.48449 | 24218 ft | 436 kts | 271° |
| 2026-05-06 23:28 | 49.74866 | -95.53111 | 23486 ft | 431 kts | 271° |
| 2026-05-06 23:28 | 49.74838 | -95.57718 | 22651 ft | 426 kts | 271° |
| 2026-05-06 23:28 | 49.74808 | -95.62263 | 21920 ft | 419 kts | 271° |
| 2026-05-06 23:28 | 49.74777 | -95.66678 | 21220 ft | 413 kts | 271° |
| 2026-05-06 23:29 | 49.74744 | -95.71082 | 20527 ft | 408 kts | 271° |
| 2026-05-06 23:29 | 49.74711 | -95.75439 | 19822 ft | 403 kts | 271° |
| 2026-05-06 23:29 | 49.74676 | -95.79740 | 19124 ft | 398 kts | 271° |
| 2026-05-06 23:29 | 49.74640 | -95.84009 | 18439 ft | 394 kts | 271° |
| 2026-05-06 23:30 | 49.74603 | -95.88224 | 17681 ft | 391 kts | 271° |
| 2026-05-06 23:30 | 49.74564 | -95.92391 | 16997 ft | 385 kts | 271° |
| 2026-05-06 23:30 | 49.74525 | -95.96505 | 16317 ft | 380 kts | 271° |
| 2026-05-06 23:30 | 49.74485 | -96.00512 | 15662 ft | 376 kts | 271° |
| 2026-05-06 23:31 | 49.74444 | -96.04531 | 14955 ft | 373 kts | 271° |
| 2026-05-06 23:31 | 49.74402 | -96.08512 | 14333 ft | 368 kts | 271° |
| 2026-05-06 23:31 | 49.74359 | -96.12451 | 13665 ft | 365 kts | 271° |
| 2026-05-06 23:31 | 49.74315 | -96.16350 | 12970 ft | 361 kts | 271° |
| 2026-05-06 23:32 | 49.74271 | -96.20212 | 12345 ft | 356 kts | 271° |
| 2026-05-06 23:32 | 49.74225 | -96.24006 | 11796 ft | 350 kts | 271° |
| 2026-05-06 23:32 | 49.74179 | -96.27743 | 11235 ft | 346 kts | 271° |
| 2026-05-06 23:32 | 49.74134 | -96.31378 | 11019 ft | 337 kts | 271° |
| 2026-05-06 23:33 | 49.74087 | -96.34953 | 10845 ft | 329 kts | 271° |
| 2026-05-06 23:33 | 49.74041 | -96.38459 | 10702 ft | 322 kts | 271° |
| 2026-05-06 23:33 | 49.73996 | -96.41848 | 10560 ft | 309 kts | 271° |
| 2026-05-06 23:33 | 49.73952 | -96.45100 | 10428 ft | 297 kts | 271° |
| 2026-05-06 23:34 | 49.73907 | -96.48233 | 10308 ft | 286 kts | 272° |
| 2026-05-06 23:34 | 49.73864 | -96.51253 | 10189 ft | 276 kts | 271° |
| 2026-05-06 23:34 | 49.73833 | -96.54171 | 10072 ft | 267 kts | 272° |
| 2026-05-06 23:34 | 49.73828 | -96.56964 | 9864 ft | 262 kts | 273° |
| 2026-05-06 23:35 | 49.73830 | -96.59761 | 9596 ft | 259 kts | 273° |
| 2026-05-06 23:35 | 49.73831 | -96.62532 | 9317 ft | 256 kts | 273° |
| 2026-05-06 23:35 | 49.73830 | -96.65274 | 9035 ft | 254 kts | 273° |
| 2026-05-06 23:35 | 49.73828 | -96.67992 | 8746 ft | 252 kts | 273° |
| 2026-05-06 23:36 | 49.73825 | -96.70691 | 8472 ft | 250 kts | 273° |
| 2026-05-06 23:36 | 49.73820 | -96.73371 | 8193 ft | 248 kts | 273° |
| 2026-05-06 23:36 | 49.73815 | -96.76031 | 7912 ft | 247 kts | 273° |
| 2026-05-06 23:36 | 49.73809 | -96.78633 | 7650 ft | 245 kts | 273° |
| 2026-05-06 23:37 | 49.73803 | -96.81260 | 7374 ft | 244 kts | 273° |
| 2026-05-06 23:37 | 49.73795 | -96.83867 | 7098 ft | 242 kts | 273° |
| 2026-05-06 23:37 | 49.73788 | -96.86465 | 6826 ft | 241 kts | 273° |
| 2026-05-06 23:37 | 49.73780 | -96.89043 | 6557 ft | 240 kts | 272° |
| 2026-05-06 23:38 | 49.73771 | -96.91613 | 6280 ft | 238 kts | 272° |
| 2026-05-06 23:38 | 49.73760 | -96.94142 | 6126 ft | 231 kts | 272° |
| 2026-05-06 23:38 | 49.73749 | -96.96588 | 6001 ft | 224 kts | 272° |
| 2026-05-06 23:38 | 49.73722 | -96.98987 | 5825 ft | 224 kts | 272° |
| 2026-05-06 23:39 | 49.73684 | -97.01390 | 5672 ft | 229 kts | 271° |
| 2026-05-06 23:39 | 49.73643 | -97.03876 | 5504 ft | 234 kts | 271° |
| 2026-05-06 23:39 | 49.73600 | -97.06405 | 5323 ft | 237 kts | 271° |
| 2026-05-06 23:39 | 49.73557 | -97.08932 | 5139 ft | 233 kts | 271° |
| 2026-05-06 23:40 | 49.73499 | -97.11410 | 4941 ft | 229 kts | 266° |
| 2026-05-06 23:40 | 49.72908 | -97.13675 | 4778 ft | 231 kts | 234° |
| 2026-05-06 23:40 | 49.71639 | -97.15170 | 4594 ft | 233 kts | 206° |
| 2026-05-06 23:40 | 49.70071 | -97.15800 | 4437 ft | 233 kts | 192° |
| 2026-05-06 23:41 | 49.68490 | -97.16163 | 4266 ft | 233 kts | 191° |
| 2026-05-06 23:41 | 49.66892 | -97.16504 | 4083 ft | 231 kts | 192° |
| 2026-05-06 23:41 | 49.65329 | -97.16925 | 4003 ft | 225 kts | 192° |
| 2026-05-06 23:41 | 49.63802 | -97.17358 | 3988 ft | 220 kts | 198° |
| 2026-05-06 23:42 | 49.62530 | -97.18608 | 3708 ft | 220 kts | 239° |
| 2026-05-06 23:42 | 49.62122 | -97.20783 | 3473 ft | 211 kts | 276° |
| 2026-05-06 23:42 | 49.62529 | -97.22917 | 3213 ft | 207 kts | 304° |
| 2026-05-06 23:42 | 49.63526 | -97.24461 | 3073 ft | 204 kts | 330° |
| 2026-05-06 23:43 | 49.64850 | -97.25133 | 3028 ft | 200 kts | 349° |
| 2026-05-06 23:43 | 49.66197 | -97.25469 | 3014 ft | 198 kts | 350° |
| 2026-05-06 23:43 | 49.67559 | -97.25810 | 3022 ft | 199 kts | 350° |
| 2026-05-06 23:43 | 49.68927 | -97.26153 | 3010 ft | 200 kts | 350° |
| 2026-05-06 23:44 | 49.70305 | -97.26500 | 3009 ft | 200 kts | 350° |
| 2026-05-06 23:44 | 49.71682 | -97.26848 | 3016 ft | 201 kts | 349° |
| 2026-05-06 23:44 | 49.73067 | -97.27199 | 3016 ft | 202 kts | 349° |
| 2026-05-06 23:44 | 49.74466 | -97.27465 | 2996 ft | 204 kts | 359° |
| 2026-05-06 23:45 | 49.75877 | -97.27304 | 3002 ft | 201 kts | 5° |
| 2026-05-06 23:45 | 49.77206 | -97.27034 | 2982 ft | 188 kts | 6° |
| 2026-05-06 23:45 | 49.78439 | -97.26751 | 2991 ft | 173 kts | 6° |
| 2026-05-06 23:45 | 49.79646 | -97.26474 | 2757 ft | 176 kts | 6° |
| 2026-05-06 23:46 | 49.80825 | -97.26200 | 2532 ft | 166 kts | 6° |
| 2026-05-06 23:46 | 49.81935 | -97.25939 | 2301 ft | 156 kts | 6° |
| 2026-05-06 23:46 | 49.82956 | -97.25705 | 2106 ft | 142 kts | 6° |
| 2026-05-06 23:46 | 49.83878 | -97.25492 | 1954 ft | 132 kts | 6° |
| 2026-05-06 23:47 | 49.84769 | -97.25286 | 1754 ft | 127 kts | 5° |
| 2026-05-06 23:47 | 49.85636 | -97.25084 | 1588 ft | 125 kts | 6° |
| 2026-05-06 23:47 | 49.86476 | -97.24896 | 1403 ft | 130 kts | 5° |
| 2026-05-06 23:47 | 49.87401 | -97.24681 | 1309 ft | 132 kts | 8° |
| 2026-05-06 23:48 | 49.88291 | -97.24475 | 1066 ft | 129 kts | 7° |
| 2026-05-06 23:48 | 49.89173 | -97.24268 | 886 ft | 126 kts | 6° |
| 2026-05-06 23:48 | 49.89997 | -97.24083 | 784 ft | 107 kts | 8° |
| 2026-05-06 23:48 | 49.90519 | -97.23961 | 787 ft | 46 kts | 8° |
| 2026-05-06 23:49 | 49.90711 | -97.23920 | 789 ft | 13 kts | 7° |
| 2026-05-06 23:49 | 49.90745 | -97.23914 | 789 ft | 1 kts | 5° |
| 2026-05-06 23:49 | 49.90757 | -97.23911 | 789 ft | 3 kts | 18° |
| 2026-05-06 23:49 | 49.90805 | -97.23786 | 788 ft | 25 kts | 78° |
| 2026-05-06 23:50 | 49.90833 | -97.23576 | 784 ft | 4 kts | 79° |
| 2026-05-06 23:50 | 49.90834 | -97.23565 | 784 ft | 0 kts | 78° |
| 2026-05-06 23:50 | 49.90837 | -97.23543 | 784 ft | 4 kts | 79° |
| 2026-05-06 23:51 | 49.90845 | -97.23480 | 783 ft | 9 kts | 78° |
| 2026-05-06 23:51 | 49.90865 | -97.23323 | 784 ft | 20 kts | 81° |
| 2026-05-06 23:51 | 49.90882 | -97.23062 | 783 ft | 29 kts | 85° |
| 2026-05-06 23:51 | 49.90863 | -97.22807 | 783 ft | 23 kts | 124° |
| 2026-05-06 23:52 | 49.90760 | -97.22565 | 781 ft | 27 kts | 99° |
| 2026-05-06 23:52 | 49.90759 | -97.22358 | 782 ft | 14 kts | 111° |
| 2026-05-06 23:52 | 49.90705 | -97.22292 | 783 ft | 8 kts | 188° |
| 2026-05-06 23:52 | 49.90670 | -97.22300 | 784 ft | 0 kts | 187° |